Time;durP1;ratioP1;P1;durP2;ratioP2;P2;SDS_P1;SDS_P2;PMS_P1;PMS_P2;Temp;Humidity;BMP_temperature;BMP_pressure;BME280_temperature;BME280_humidity;BME280_pressure;Samples;Min_cycle;Max_cycle;Signal;HPM_P1;HPM_P2
2023/01/03 00:01:11;;;;;;;4.43;4.20;;;9.70;1.00;;;;;;6259476;28;20237;-57
2023/01/03 00:04:16;;;;;;;7.13;4.80;;;9.70;1.00;;;;;;6288250;28;20229;-57
2023/01/03 00:07:32;;;;;;;5.13;4.37;;;9.60;1.00;;;;;;6265768;28;20616;-55
2023/01/03 00:10:36;;;;;;;4.67;4.47;;;9.60;1.00;;;;;;6283573;28;20311;-56
2023/01/03 00:13:38;;;;;;;4.43;4.20;;;9.70;1.00;;;;;;6281853;28;20233;-57
2023/01/03 00:16:41;;;;;;;4.37;4.13;;;9.70;1.00;;;;;;6258462;28;20240;-56
2023/01/03 00:19:46;;;;;;;4.53;3.97;;;9.70;1.00;;;;;;6258779;28;20638;-58
2023/01/03 00:22:49;;;;;;;3.97;3.80;;;9.70;1.00;;;;;;6259100;28;20412;-57
2023/01/03 00:25:52;;;;;;;4.83;4.43;;;9.70;1.00;;;;;;6258153;28;20249;-57
2023/01/03 00:28:55;;;;;;;4.73;4.30;;;9.70;1.00;;;;;;6258929;28;20245;-57
2023/01/03 00:31:58;;;;;;;4.30;3.90;;;9.70;1.00;;;;;;6288852;28;20243;-57
2023/01/03 00:35:03;;;;;;;4.17;3.97;;;9.70;1.00;;;;;;6283272;28;20233;-57
2023/01/03 00:38:07;;;;;;;4.80;4.50;;;9.70;1.00;;;;;;6281221;28;20291;-57
2023/01/03 00:41:11;;;;;;;4.97;4.67;;;9.70;1.00;;;;;;6283499;28;20237;-57
2023/01/03 00:44:15;;;;;;;4.60;4.30;;;9.70;1.00;;;;;;6283468;28;20239;-55
2023/01/03 00:47:18;;;;;;;4.77;4.20;;;9.70;1.00;;;;;;6263451;28;20233;-57
2023/01/03 00:50:22;;;;;;;4.40;4.00;;;9.70;1.00;;;;;;6258334;28;20245;-57
2023/01/03 00:53:26;;;;;;;4.47;4.20;;;9.70;1.00;;;;;;6258389;28;20313;-56
2023/01/03 00:56:32;;;;;;;4.17;3.80;;;9.70;1.00;;;;;;6258922;28;20241;-59
2023/01/03 00:59:35;;;;;;;4.23;3.90;;;9.70;1.00;;;;;;6258354;28;20237;-57
2023/01/03 01:02:38;;;;;;;4.40;4.10;;;9.70;1.00;;;;;;6278957;28;20230;-58
2023/01/03 01:05:43;;;;;;;4.30;4.00;;;9.70;1.00;;;;;;6281162;28;20479;-57
2023/01/03 01:08:47;;;;;;;4.13;3.93;;;9.70;1.00;;;;;;6282881;28;20241;-64
2023/01/03 01:11:51;;;;;;;4.30;3.97;;;9.70;1.00;;;;;;6280287;28;20732;-57
2023/01/03 01:14:54;;;;;;;3.80;3.70;;;9.60;1.00;;;;;;6259040;28;20238;-57
2023/01/03 01:17:58;;;;;;;3.93;3.73;;;9.50;1.00;;;;;;6258535;28;20242;-57
2023/01/03 01:21:04;;;;;;;4.20;3.90;;;9.50;1.00;;;;;;6271822;28;20713;-59
2023/01/03 01:24:07;;;;;;;3.87;3.73;;;9.50;1.00;;;;;;6283433;28;20279;-57
2023/01/03 01:27:17;;;;;;;3.90;3.60;;;9.50;1.00;;;;;;6282693;28;20234;-58
2023/01/03 01:30:20;;;;;;;3.83;3.63;;;9.40;1.00;;;;;;6277844;28;20851;-58
2023/01/03 01:33:23;;;;;;;3.90;3.50;;;9.40;1.00;;;;;;6288436;28;20771;-58
2023/01/03 01:36:29;;;;;;;4.53;3.70;;;9.30;1.00;;;;;;6283477;28;20233;-59
2023/01/03 01:39:32;;;;;;;3.80;3.70;;;9.30;1.00;;;;;;6283991;28;20233;-59
2023/01/03 01:45:56;;;;;;;4.13;3.87;;;9.20;1.00;;;;;;6287961;28;20234;-58
2023/01/03 01:49:02;;;;;;;4.20;3.30;;;9.20;1.00;;;;;;6262352;28;20545;-58
2023/01/03 01:52:07;;;;;;;3.67;3.43;;;9.10;1.00;;;;;;6262489;28;20234;-58
2023/01/03 01:55:13;;;;;;;3.93;3.60;;;9.00;1.00;;;;;;6262463;28;20246;-58
2023/01/03 01:58:17;;;;;;;3.43;3.23;;;9.00;1.00;;;;;;6262544;28;20241;-58
2023/01/03 02:01:22;;;;;;;4.00;3.70;;;8.90;1.00;;;;;;6265001;28;20238;-58
2023/01/03 02:04:30;;;;;;;4.07;3.67;;;9.00;1.00;;;;;;6287196;28;20283;-58
2023/01/03 02:07:36;;;;;;;3.20;3.10;;;8.90;1.00;;;;;;6286483;28;20265;-59
2023/01/03 02:10:57;;;;;;;3.20;3.00;;;8.90;1.00;;;;;;6286134;28;20585;-57
2023/01/03 02:14:13;;;;;;;3.23;3.03;;;8.80;1.00;;;;;;6270879;28;20721;-59
2023/01/03 02:17:31;;;;;;;4.13;3.80;;;8.80;1.00;;;;;;6261407;28;20469;-58
2023/01/03 02:20:54;;;;;;;3.83;3.63;;;8.80;1.00;;;;;;6261472;28;20686;-58
2023/01/03 02:24:48;;;;;;;4.37;3.40;;;8.70;1.00;;;;;;6261040;28;20235;-58
2023/01/03 02:28:18;;;;;;;3.60;3.40;;;8.70;1.00;;;;;;6175463;28;20244;-59
2023/01/03 02:31:28;;;;;;;3.90;3.67;;;8.60;1.00;;;;;;6285931;28;20236;-57
2023/01/03 02:34:39;;;;;;;3.57;3.10;;;8.50;1.00;;;;;;6288655;28;20225;-58
2023/01/03 02:37:52;;;;;;;3.33;3.10;;;8.40;1.00;;;;;;6281498;28;20416;-57
2023/01/03 02:41:03;;;;;;;3.57;3.37;;;8.40;1.00;;;;;;6278599;28;20257;-57
2023/01/03 02:44:14;;;;;;;3.40;3.30;;;8.40;1.00;;;;;;6287518;28;20571;-58
2023/01/03 02:47:21;;;;;;;4.43;3.50;;;8.20;1.00;;;;;;6267569;28;20244;-57
2023/01/03 02:50:26;;;;;;;3.80;3.57;;;8.20;1.00;;;;;;6260400;28;20656;-57
2023/01/03 02:53:32;;;;;;;5.23;4.00;;;8.10;1.00;;;;;;6260594;28;20238;-56
2023/01/03 02:56:40;;;;;;;3.97;3.77;;;8.10;1.00;;;;;;6260495;28;22367;-57
2023/01/03 02:59:46;;;;;;;3.67;3.57;;;8.00;1.00;;;;;;6262684;28;20238;-57
2023/01/03 03:02:55;;;;;;;4.30;3.77;;;8.00;1.00;;;;;;6283169;28;20233;-57
2023/01/03 03:06:06;;;;;;;4.13;3.90;;;7.90;1.00;;;;;;6278236;28;20248;-56
2023/01/03 03:09:09;;;;;;;4.70;3.70;;;7.90;1.00;;;;;;6285756;28;20252;-57
2023/01/03 03:15:38;;;;;;;3.97;3.80;;;7.80;1.00;;;;;;6260230;28;20230;-59
2023/01/03 03:18:51;;;;;;;3.67;3.50;;;7.80;1.00;;;;;;6259344;28;20307;-57
2023/01/03 03:25:21;;;;;;;3.43;3.27;;;7.60;1.00;;;;;;6259970;28;20234;-57
2023/01/03 03:28:36;;;;;;;3.80;3.50;;;7.70;1.00;;;;;;6260299;28;20234;-58
2023/01/03 03:31:43;;;;;;;4.50;3.73;;;7.60;1.00;;;;;;6270404;28;20255;-63
2023/01/03 03:34:49;;;;;;;4.40;3.60;;;7.90;1.00;;;;;;6285590;28;20241;-58
2023/01/03 03:37:56;;;;;;;4.03;3.70;;;7.60;1.00;;;;;;6283970;28;20237;-59
2023/01/03 03:48:07;;;;;;;3.83;3.73;;;7.40;1.00;;;;;;6263154;28;20237;-57
2023/01/03 03:51:17;;;;;;;5.33;4.00;;;7.30;1.00;;;;;;6284004;28;20241;-57
2023/01/03 03:54:23;;;;;;;4.33;4.00;;;7.20;1.00;;;;;;6282537;28;20387;-58
2023/01/03 03:57:30;;;;;;;4.43;3.60;;;7.20;1.00;;;;;;6283420;28;20771;-58
2023/01/03 04:00:37;;;;;;;4.20;3.90;;;7.20;1.00;;;;;;6281725;28;20225;-57
2023/01/03 04:03:43;;;;;;;4.53;4.23;;;7.20;1.00;;;;;;6282556;28;20230;-58
2023/01/03 04:06:50;;;;;;;4.20;3.90;;;7.20;1.00;;;;;;6281644;28;20268;-58
2023/01/03 04:09:53;;;;;;;4.17;3.80;;;7.10;1.00;;;;;;6283377;28;20320;-58
2023/01/03 04:12:56;;;;;;;4.03;3.70;;;7.10;1.00;;;;;;6282812;28;20243;-58
2023/01/03 04:15:59;;;;;;;4.23;4.03;;;7.00;1.00;;;;;;6282006;28;20923;-58
2023/01/03 04:19:02;;;;;;;4.37;4.17;;;7.00;1.00;;;;;;6280926;28;20748;-56
2023/01/03 04:22:06;;;;;;;4.70;3.73;;;7.00;1.00;;;;;;6280494;28;20241;-58
2023/01/03 04:25:09;;;;;;;4.10;3.90;;;7.00;1.00;;;;;;6282058;28;20908;-58
2023/01/03 04:28:12;;;;;;;4.40;4.13;;;7.00;1.00;;;;;;6282687;28;20237;-57
2023/01/03 04:31:15;;;;;;;3.87;3.77;;;7.10;1.00;;;;;;6274657;28;20290;-58
2023/01/03 04:34:18;;;;;;;4.50;4.30;;;6.90;1.00;;;;;;6267838;28;20259;-57
2023/01/03 04:37:23;;;;;;;4.30;4.10;;;6.90;1.00;;;;;;6274569;28;20244;-56
2023/01/03 04:40:26;;;;;;;4.93;4.43;;;6.80;1.00;;;;;;6280067;28;20245;-57
2023/01/03 04:46:49;;;;;;;3.87;3.83;;;6.70;1.00;;;;;;6281575;28;20813;-56
2023/01/03 04:49:55;;;;;;;4.43;4.23;;;6.80;1.00;;;;;;6279575;28;20299;-57
2023/01/03 04:52:59;;;;;;;4.53;3.90;;;6.80;1.00;;;;;;6280930;28;20241;-57
2023/01/03 04:56:02;;;;;;;4.23;4.00;;;6.70;1.00;;;;;;6283991;28;20241;-58
2023/01/03 04:59:05;;;;;;;4.13;3.87;;;6.80;1.00;;;;;;6282812;28;20248;-58
2023/01/03 05:02:08;;;;;;;4.50;4.20;;;6.70;1.00;;;;;;6282094;28;20650;-57
2023/01/03 05:05:12;;;;;;;4.93;4.40;;;6.80;1.00;;;;;;6279738;28;20232;-57
2023/01/03 05:08:16;;;;;;;4.63;4.33;;;6.70;1.00;;;;;;6286314;28;21807;-57
2023/01/03 05:11:19;;;;;;;4.70;4.30;;;6.70;1.00;;;;;;6276919;28;20228;-58
2023/01/03 05:14:22;;;;;;;5.13;4.67;;;6.60;1.00;;;;;;6285632;28;20228;-57
2023/01/03 05:17:25;;;;;;;4.40;4.20;;;6.70;1.00;;;;;;6283987;28;20237;-57
2023/01/03 05:27:11;;;;;;;4.87;4.57;;;6.70;1.00;;;;;;6276319;28;20807;-55
2023/01/03 05:30:14;;;;;;;5.03;4.73;;;6.70;1.00;;;;;;6271715;28;20594;-57
2023/01/03 05:33:17;;;;;;;7.50;5.27;;;6.70;1.00;;;;;;6289102;28;20241;-56
2023/01/03 05:36:20;;;;;;;7.07;4.90;;;6.60;1.00;;;;;;6278101;28;20449;-57
2023/01/03 05:39:24;;;;;;;5.90;5.13;;;6.60;1.00;;;;;;6281853;28;20251;-57
2023/01/03 05:42:27;;;;;;;8.70;5.17;;;6.70;1.00;;;;;;6281686;28;20732;-56
2023/01/03 05:45:30;;;;;;;8.73;4.97;;;6.60;1.00;;;;;;6281570;28;20279;-57
2023/01/03 05:48:33;;;;;;;5.03;4.63;;;6.40;1.00;;;;;;6285926;28;20269;-57
2023/01/03 05:51:36;;;;;;;6.90;4.67;;;6.80;1.00;;;;;;6283565;28;20461;-57
2023/01/03 05:54:41;;;;;;;4.93;4.43;;;6.50;1.00;;;;;;6285370;28;20467;-58
2023/01/03 05:57:45;;;;;;;4.77;4.50;;;6.50;1.00;;;;;;6287947;28;20252;-56
2023/01/03 06:00:48;;;;;;;4.97;4.50;;;6.50;1.00;;;;;;6284254;28;20266;-57
2023/01/03 06:03:52;;;;;;;5.37;4.47;;;6.40;1.00;;;;;;6291403;28;20237;-57
2023/01/03 06:06:55;;;;;;;4.60;4.40;;;6.40;1.00;;;;;;6272358;28;20763;-57
2023/01/03 06:09:59;;;;;;;4.93;4.73;;;6.40;1.00;;;;;;6286954;28;20248;-58
2023/01/03 06:13:02;;;;;;;5.43;4.50;;;6.20;1.00;;;;;;6274266;28;20255;-57
2023/01/03 06:19:27;;;;;;;5.07;4.67;;;6.20;1.00;;;;;;6290311;28;20676;-57
2023/01/03 06:22:30;;;;;;;5.07;4.27;;;6.10;1.00;;;;;;6292491;28;20232;-58
2023/01/03 06:25:34;;;;;;;5.53;4.60;;;6.30;1.00;;;;;;6283036;28;20381;-56
2023/01/03 06:28:37;;;;;;;5.13;4.83;;;6.50;1.00;;;;;;6294722;28;20232;-57
2023/01/03 06:31:40;;;;;;;4.67;4.30;;;6.20;1.00;;;;;;6275921;28;20221;-57
2023/01/03 06:34:43;;;;;;;6.43;4.60;;;6.00;1.00;;;;;;6275058;28;20234;-56
2023/01/03 06:37:46;;;;;;;4.20;4.00;;;6.30;1.00;;;;;;6282012;28;20238;-57
2023/01/03 06:40:50;;;;;;;4.73;4.47;;;6.10;1.00;;;;;;6276613;28;20240;-58
2023/01/03 06:43:54;;;;;;;4.63;4.23;;;6.30;1.00;;;;;;6265277;28;20238;-57
2023/01/03 06:53:40;;;;;;;5.93;5.57;;;5.90;1.00;;;;;;6279978;28;20230;-60
2023/01/03 06:56:45;;;;;;;5.83;5.37;;;6.20;1.00;;;;;;6278975;28;20230;-57
2023/01/03 06:59:47;;;;;;;9.17;5.80;;;6.10;1.00;;;;;;6279333;28;20244;-56
2023/01/03 07:02:50;;;;;;;8.90;5.53;;;6.20;1.00;;;;;;6288436;28;20263;-58
2023/01/03 07:05:54;;;;;;;5.83;5.23;;;6.10;1.00;;;;;;6284215;28;20800;-57
2023/01/03 07:08:57;;;;;;;5.80;5.50;;;6.00;1.00;;;;;;6279662;28;20245;-57
2023/01/03 07:13:57;;;;;;;6.90;5.33;;;6.20;1.00;;;;;;6282002;28;20241;-57
2023/01/03 07:15:23;;;;;;;7.87;6.00;;;5.90;1.00;;;;;;6280800;28;20229;-58
2023/01/03 07:18:26;;;;;;;9.60;5.63;;;5.80;1.00;;;;;;6283342;28;20280;-57
2023/01/03 07:21:31;;;;;;;9.77;5.90;;;5.90;1.00;;;;;;6284749;28;20233;-57
2023/01/03 07:24:34;;;;;;;8.53;5.80;;;6.00;1.00;;;;;;6283633;28;20473;-56
2023/01/03 07:27:38;;;;;;;6.30;5.70;;;5.90;1.00;;;;;;6281423;28;20261;-57
2023/01/03 07:30:43;;;;;;;10.27;6.47;;;5.90;1.00;;;;;;6273510;28;20491;-56
2023/01/03 07:33:46;;;;;;;8.27;5.87;;;6.00;1.00;;;;;;6289516;28;20244;-57
2023/01/03 07:36:49;;;;;;;11.97;6.43;;;5.80;1.00;;;;;;6282412;28;20233;-61
2023/01/03 07:39:52;;;;;;;6.60;6.00;;;6.00;1.00;;;;;;6281259;28;20272;-57
2023/01/03 07:46:19;;;;;;;7.80;6.20;;;5.80;1.00;;;;;;6270814;28;20627;-57
2023/01/03 07:49:22;;;;;;;8.57;6.07;;;5.90;1.00;;;;;;6277152;28;20591;-57
2023/01/03 07:52:25;;;;;;;6.17;5.60;;;5.90;1.00;;;;;;6281787;28;20225;-57
2023/01/03 07:55:28;;;;;;;5.80;5.50;;;5.90;1.00;;;;;;6277061;28;20230;-57
2023/01/03 07:58:33;;;;;;;6.60;5.70;;;5.90;1.00;;;;;;6272403;28;20225;-57
2023/01/03 08:01:36;;;;;;;5.93;5.43;;;6.20;1.00;;;;;;6282858;28;20236;-56
2023/01/03 08:04:39;;;;;;;6.00;5.47;;;5.90;1.00;;;;;;6287961;28;20275;-57
2023/01/03 08:07:42;;;;;;;6.40;5.80;;;5.90;1.00;;;;;;6284375;28;20392;-57
2023/01/03 08:14:07;;;;;;;6.07;5.53;;;6.00;1.00;;;;;;6278270;28;20255;-58
2023/01/03 08:17:10;;;;;;;6.77;5.90;;;6.00;1.00;;;;;;6282087;28;20371;-59
2023/01/03 08:20:14;;;;;;;5.70;5.37;;;6.00;1.00;;;;;;6280335;28;20232;-57
2023/01/03 08:23:17;;;;;;;6.13;5.60;;;6.10;1.00;;;;;;6288954;28;20230;-57
2023/01/03 08:26:20;;;;;;;6.63;6.20;;;6.30;1.00;;;;;;6285581;28;20897;-58
2023/01/03 08:29:24;;;;;;;6.13;5.57;;;6.10;1.00;;;;;;6272495;28;20496;-57
2023/01/03 08:32:28;;;;;;;5.60;5.10;;;6.10;1.00;;;;;;6285673;28;20714;-56
2023/01/03 08:35:36;;;;;;;6.43;5.83;;;6.30;1.00;;;;;;6279271;28;20316;-57
2023/01/03 08:38:44;;;;;;;6.37;5.87;;;6.40;1.00;;;;;;6280971;28;20250;-57
2023/01/03 08:41:52;;;;;;;8.50;5.60;;;6.30;1.00;;;;;;6286787;28;20589;-57
2023/01/03 08:45:02;;;;;;;7.17;5.77;;;6.30;1.00;;;;;;6274033;28;20550;-57
2023/01/03 08:48:06;;;;;;;5.77;5.27;;;6.50;1.00;;;;;;6281674;28;20596;-60
2023/01/03 08:51:10;;;;;;;6.43;5.47;;;6.40;1.00;;;;;;6267360;28;20360;-59
2023/01/03 08:54:13;;;;;;;7.00;5.40;;;6.50;1.00;;;;;;6279938;28;20229;-57
2023/01/03 08:57:16;;;;;;;7.63;6.10;;;6.60;1.00;;;;;;6273896;28;20309;-56
2023/01/03 09:00:21;;;;;;;5.97;5.40;;;6.70;1.00;;;;;;6280473;28;20694;-57
2023/01/03 09:03:24;;;;;;;7.30;5.53;;;6.60;1.00;;;;;;6287215;28;20237;-57
2023/01/03 09:06:27;;;;;;;6.30;5.70;;;6.80;1.00;;;;;;6283449;28;20254;-57
2023/01/03 09:09:30;;;;;;;7.50;6.13;;;6.80;1.00;;;;;;6281911;28;20234;-58
2023/01/03 09:12:33;;;;;;;5.80;5.30;;;6.90;1.00;;;;;;6280082;28;20233;-56
2023/01/03 09:15:38;;;;;;;6.10;5.60;;;6.90;1.00;;;;;;6281525;28;20221;-57
2023/01/03 09:18:41;;;;;;;5.97;5.40;;;6.90;1.00;;;;;;6275904;28;20245;-57
2023/01/03 09:21:44;;;;;;;6.23;5.67;;;7.20;1.00;;;;;;6278601;28;20240;-57
2023/01/03 09:24:47;;;;;;;5.23;4.83;;;7.00;1.00;;;;;;6282045;28;20468;-57
2023/01/03 09:27:50;;;;;;;5.77;5.23;;;7.20;1.00;;;;;;6282360;28;20243;-57
2023/01/03 09:30:54;;;;;;;5.40;5.20;;;7.20;1.00;;;;;;6274792;28;20248;-58
2023/01/03 09:33:57;;;;;;;5.80;4.77;;;7.20;1.00;;;;;;6289748;28;20647;-56
2023/01/03 09:37:03;;;;;;;4.57;4.37;;;7.70;1.00;;;;;;6274895;28;20245;-57
2023/01/03 09:40:07;;;;;;;5.60;4.70;;;7.50;1.00;;;;;;6260778;28;20229;-52
2023/01/03 09:43:14;;;;;;;5.33;4.30;;;7.40;1.00;;;;;;6282680;28;20493;-57
2023/01/03 09:46:29;;;;;;;5.93;4.90;;;7.50;1.00;;;;;;6282295;28;20240;-57
2023/01/03 09:49:34;;;;;;;4.83;4.47;;;7.60;1.00;;;;;;6278204;28;20320;-57
2023/01/03 10:06:46;;;;;;;4.40;4.13;;;7.70;1.00;;;;;;6282223;28;20226;-57
2023/01/03 10:09:55;;;;;;;4.70;4.33;;;7.70;1.00;;;;;;6282683;28;20363;-60
2023/01/03 10:13:07;;;;;;;5.97;4.70;;;7.50;1.00;;;;;;6272876;28;20237;-57
2023/01/03 10:16:19;;;;;;;4.50;4.13;;;7.30;1.00;;;;;;6279296;28;20222;-56
2023/01/03 10:19:55;;;;;;;6.03;4.23;;;7.10;1.00;;;;;;6283944;28;20237;-58
2023/01/03 10:22:58;;;;;;;4.57;4.17;;;7.20;1.00;;;;;;6270149;28;20655;-57
2023/01/03 10:26:08;;;;;;;4.93;4.53;;;7.20;1.00;;;;;;6286603;28;20471;-56
2023/01/03 10:29:17;;;;;;;5.40;4.90;;;7.10;1.00;;;;;;6272979;28;20237;-56
2023/01/03 10:32:38;;;;;;;5.10;4.73;;;7.10;1.00;;;;;;6284832;28;20238;-57
2023/01/03 10:35:42;;;;;;;5.60;5.10;;;7.10;1.00;;;;;;6277734;28;20651;-57
2023/01/03 10:38:45;;;;;;;9.07;5.57;;;7.00;1.00;;;;;;6279873;28;20533;-56
2023/01/03 10:41:58;;;;;;;6.63;6.00;;;7.10;1.00;;;;;;6282704;28;20750;-57
2023/01/03 10:45:04;;;;;;;5.90;5.40;;;7.10;1.00;;;;;;6285540;28;20353;-57
2023/01/03 10:48:14;;;;;;;8.73;5.77;;;7.20;1.00;;;;;;6280581;28;20268;-57
2023/01/03 10:51:27;;;;;;;8.47;6.37;;;7.60;1.00;;;;;;6284075;28;20621;-57
2023/01/03 10:54:46;;;;;;;6.30;5.83;;;7.30;1.00;;;;;;6281099;28;20234;-58
2023/01/03 10:58:00;;;;;;;8.80;6.80;;;7.70;1.00;;;;;;6285657;28;20245;-59
2023/01/03 11:01:21;;;;;;;6.53;5.93;;;7.90;1.00;;;;;;6275254;28;20225;-57
2023/01/03 11:04:24;;;;;;;9.00;6.27;;;8.10;1.00;;;;;;6284450;28;20226;-57
2023/01/03 11:07:29;;;;;;;8.27;6.50;;;8.10;1.00;;;;;;6275515;28;20388;-57
2023/01/03 11:10:38;;;;;;;6.77;6.27;;;8.30;1.00;;;;;;6279068;28;20233;-61
2023/01/03 11:13:42;;;;;;;7.07;6.43;;;8.30;1.00;;;;;;6294808;28;20234;-58
2023/01/03 11:16:45;;;;;;;8.10;6.47;;;8.30;1.00;;;;;;6286652;28;20310;-58
2023/01/03 11:19:49;;;;;;;7.47;6.87;;;8.40;1.00;;;;;;6284185;28;20299;-57
2023/01/03 11:23:00;;;;;;;8.27;6.67;;;8.50;1.00;;;;;;6282289;28;20760;-59
2023/01/03 11:26:12;;;;;;;9.50;7.13;;;8.50;1.00;;;;;;6274043;28;20237;-58
2023/01/03 11:29:47;;;;;;;7.47;6.67;;;8.50;1.00;;;;;;6271825;28;20241;-58
2023/01/03 11:33:11;;;;;;;7.37;6.60;;;8.40;1.00;;;;;;6294711;28;20240;-57
2023/01/03 11:36:26;;;;;;;7.43;6.70;;;8.30;1.00;;;;;;6283162;28;20226;-58
2023/01/03 11:39:49;;;;;;;7.63;6.20;;;8.30;1.00;;;;;;6272971;28;20638;-57
2023/01/03 11:43:04;;;;;;;6.70;6.10;;;8.10;1.00;;;;;;6279373;28;20237;-60
2023/01/03 11:46:25;;;;;;;8.07;5.70;;;7.90;1.00;;;;;;6275308;28;20230;-58
2023/01/03 11:49:35;;;;;;;7.03;6.40;;;7.70;1.00;;;;;;6271636;28;20244;-57
2023/01/03 11:52:45;;;;;;;9.37;6.20;;;7.90;1.00;;;;;;6279056;28;20308;-57
2023/01/03 11:56:06;;;;;;;6.70;6.07;;;7.90;1.00;;;;;;6290458;28;20229;-57
2023/01/03 11:59:45;;;;;;;7.33;6.77;;;7.90;1.00;;;;;;6282474;28;20299;-58
2023/01/03 12:03:09;;;;;;;12.73;7.33;;;8.00;1.00;;;;;;6275207;28;20244;-57
2023/01/03 12:06:21;;;;;;;7.03;6.53;;;8.00;1.00;;;;;;6283011;28;20245;-57
2023/01/03 12:09:38;;;;;;;7.07;6.47;;;8.00;1.00;;;;;;6274928;28;20326;-58
2023/01/03 12:13:10;;;;;;;8.23;6.87;;;8.10;1.00;;;;;;6287583;28;20620;-58
2023/01/03 12:16:18;;;;;;;8.27;7.13;;;7.90;1.00;;;;;;6272694;28;20229;-57
2023/01/03 12:19:34;;;;;;;7.37;6.60;;;7.80;1.00;;;;;;6280174;28;20736;-58
2023/01/03 12:22:41;;;;;;;7.83;6.60;;;7.90;1.00;;;;;;6288782;28;20235;-57
2023/01/03 12:25:50;;;;;;;8.90;6.63;;;7.80;1.00;;;;;;6288593;28;20229;-56
2023/01/03 12:29:00;;;;;;;7.13;6.43;;;7.80;1.00;;;;;;6276878;28;20231;-57
2023/01/03 12:32:08;;;;;;;7.30;6.60;;;7.80;1.00;;;;;;6274921;28;20606;-59
2023/01/03 12:35:30;;;;;;;7.83;7.00;;;7.80;1.00;;;;;;6283447;28;20229;-55
2023/01/03 12:38:39;;;;;;;7.00;6.47;;;7.70;1.00;;;;;;6271517;28;20336;-57
2023/01/03 12:41:46;;;;;;;9.10;6.57;;;8.00;1.00;;;;;;6280155;28;20326;-57
2023/01/03 12:44:57;;;;;;;7.73;6.00;;;7.80;1.00;;;;;;6276715;28;20637;-57
2023/01/03 12:48:08;;;;;;;10.50;7.03;;;7.80;1.00;;;;;;6276057;28;20244;-57
2023/01/03 12:51:14;;;;;;;6.97;6.10;;;7.80;1.00;;;;;;6282228;28;20363;-58
2023/01/03 12:54:27;;;;;;;6.13;5.73;;;7.90;1.00;;;;;;6279679;28;20919;-59
2023/01/03 12:57:47;;;;;;;8.23;6.20;;;8.10;1.00;;;;;;6287613;28;20253;-58
2023/01/03 13:00:59;;;;;;;6.37;5.80;;;8.10;1.00;;;;;;6287490;28;20237;-57
2023/01/03 13:04:10;;;;;;;6.80;6.13;;;8.00;1.00;;;;;;6286583;28;20249;-57
2023/01/03 13:07:17;;;;;;;6.37;5.87;;;8.00;1.00;;;;;;6285391;28;20226;-57
2023/01/03 13:10:29;;;;;;;6.80;6.30;;;8.00;1.00;;;;;;6273082;28;20496;-57
2023/01/03 13:13:34;;;;;;;7.10;6.40;;;7.80;1.00;;;;;;6280227;28;20234;-57
2023/01/03 13:16:43;;;;;;;8.50;6.33;;;8.00;1.00;;;;;;6279330;28;20229;-58
2023/01/03 13:19:58;;;;;;;8.33;6.50;;;7.70;1.00;;;;;;6265051;28;20316;-57
2023/01/03 13:23:01;;;;;;;6.70;6.20;;;7.60;1.00;;;;;;6281272;28;20775;-56
2023/01/03 13:26:21;;;;;;;10.53;5.80;;;7.70;1.00;;;;;;6283073;28;20238;-57
2023/01/03 13:29:53;;;;;;;7.23;6.07;;;7.80;1.00;;;;;;6273131;28;20233;-55
2023/01/03 13:33:16;;;;;;;6.47;5.90;;;7.90;1.00;;;;;;6281330;28;20240;-57
2023/01/03 13:36:19;;;;;;;7.90;6.40;;;8.00;1.00;;;;;;6274594;28;20237;-57
2023/01/03 13:39:39;;;;;;;6.30;5.77;;;8.00;1.00;;;;;;6282675;28;20248;-57
2023/01/03 13:42:42;;;;;;;6.43;5.70;;;8.00;1.00;;;;;;6285351;28;20238;-59
2023/01/03 13:45:56;;;;;;;6.57;6.00;;;8.00;1.00;;;;;;6284699;28;20249;-56
2023/01/03 13:49:04;;;;;;;6.13;5.67;;;7.90;1.00;;;;;;6282570;28;20320;-57
2023/01/03 13:52:55;;;;;;;6.20;5.80;;;7.80;1.00;;;;;;6283218;28;20631;-57
2023/01/03 13:56:00;;;;;;;7.43;6.27;;;7.70;1.00;;;;;;6280756;28;20234;-57
2023/01/03 13:59:18;;;;;;;6.83;6.20;;;7.70;1.00;;;;;;6286150;28;20252;-58
2023/01/03 14:02:58;;;;;;;7.97;6.30;;;7.60;1.00;;;;;;6289691;28;20286;-58
2023/01/03 14:06:23;;;;;;;6.53;6.10;;;7.50;1.00;;;;;;6265669;28;20229;-57
2023/01/03 14:09:54;;;;;;;6.30;5.70;;;7.50;1.00;;;;;;6284840;28;20300;-57
2023/01/03 14:13:26;;;;;;;6.60;6.10;;;7.40;1.00;;;;;;6282261;28;20246;-57
2023/01/03 14:16:38;;;;;;;6.20;5.80;;;7.30;1.00;;;;;;6283169;28;20233;-56
2023/01/03 14:19:49;;;;;;;6.37;5.87;;;7.30;1.00;;;;;;6290330;28;20237;-58
2023/01/03 14:22:53;;;;;;;8.07;6.10;;;7.30;1.00;;;;;;6282984;28;20536;-57
2023/01/03 14:26:06;;;;;;;6.17;5.87;;;7.20;1.00;;;;;;6287215;28;20245;-57
2023/01/03 14:29:15;;;;;;;7.30;6.60;;;7.10;1.00;;;;;;6278530;28;20234;-59
2023/01/03 14:32:21;;;;;;;7.40;6.70;;;7.00;1.00;;;;;;6283750;28;20701;-57
2023/01/03 14:35:37;;;;;;;6.60;6.10;;;7.00;1.00;;;;;;6282176;28;20228;-56
2023/01/03 14:38:46;;;;;;;6.90;6.50;;;7.00;1.00;;;;;;6278949;28;20244;-57
2023/01/03 14:41:51;;;;;;;7.00;6.40;;;6.90;1.00;;;;;;6282287;28;20396;-57
2023/01/03 14:44:55;;;;;;;6.90;6.30;;;7.00;1.00;;;;;;6283640;28;20316;-58
2023/01/03 14:47:59;;;;;;;8.93;6.90;;;6.80;1.00;;;;;;6277267;28;20246;-56
2023/01/03 14:51:03;;;;;;;14.50;10.00;;;6.90;1.00;;;;;;6284201;28;20233;-57
2023/01/03 14:54:06;;;;;;;8.13;7.43;;;7.00;1.00;;;;;;6274929;28;20230;-56
2023/01/03 14:57:19;;;;;;;7.00;6.43;;;6.80;1.00;;;;;;6274414;28;20229;-57
2023/01/03 15:00:24;;;;;;;9.20;7.60;;;6.70;1.00;;;;;;6285509;28;20238;-57
2023/01/03 15:03:37;;;;;;;7.30;6.53;;;6.90;1.00;;;;;;6276260;28;20306;-57
2023/01/03 15:06:55;;;;;;;7.80;7.20;;;6.60;1.00;;;;;;6282283;28;20237;-57
2023/01/03 15:10:17;;;;;;;10.73;7.47;;;6.60;1.00;;;;;;6284136;28;20238;-58
2023/01/03 15:13:25;;;;;;;7.13;6.73;;;6.60;1.00;;;;;;6283907;28;20249;-56
2023/01/03 15:16:32;;;;;;;8.20;7.60;;;6.50;1.00;;;;;;6284960;28;20330;-57
2023/01/03 15:19:37;;;;;;;8.73;7.10;;;6.40;1.00;;;;;;6283041;28;20494;-56
2023/01/03 15:22:41;;;;;;;7.80;7.10;;;6.50;1.00;;;;;;6281454;28;20599;-58
2023/01/03 15:25:44;;;;;;;8.63;7.83;;;6.40;1.00;;;;;;6276540;28;20263;-59
2023/01/03 15:28:53;;;;;;;7.93;7.20;;;6.30;1.00;;;;;;6271695;28;20234;-57
2023/01/03 15:31:59;;;;;;;8.10;7.30;;;6.40;1.00;;;;;;6283274;28;20264;-58
2023/01/03 15:35:02;;;;;;;10.70;9.03;;;6.40;1.00;;;;;;6287149;28;20233;-57
2023/01/03 15:38:12;;;;;;;8.17;7.30;;;6.30;1.00;;;;;;6272668;28;20685;-62
2023/01/03 15:43:18;;;;;;;9.00;7.93;;;6.30;1.00;;;;;;6276555;28;20240;-56
2023/01/03 15:44:48;;;;;;;8.60;8.03;;;6.40;1.00;;;;;;6284725;28;20237;-58
2023/01/03 15:47:56;;;;;;;8.70;7.90;;;6.40;1.00;;;;;;6278948;28;20238;-57
2023/01/03 15:50:59;;;;;;;8.83;8.13;;;6.50;1.00;;;;;;6282066;28;20313;-58
2023/01/03 15:54:02;;;;;;;8.13;7.63;;;6.30;1.00;;;;;;6276530;28;21678;-58
2023/01/03 15:57:09;;;;;;;9.37;8.20;;;6.30;1.00;;;;;;6276664;28;20392;-56
2023/01/03 16:00:19;;;;;;;9.63;8.73;;;6.20;1.00;;;;;;6279970;28;20753;-57
2023/01/03 16:03:25;;;;;;;9.83;8.83;;;6.30;1.00;;;;;;6279148;28;20292;-57
2023/01/03 16:06:28;;;;;;;11.60;9.10;;;6.20;1.00;;;;;;6284539;28;20231;-57
2023/01/03 16:09:31;;;;;;;10.43;9.40;;;6.20;1.00;;;;;;6275266;28;20229;-56
2023/01/03 16:12:37;;;;;;;12.70;10.10;;;6.00;1.00;;;;;;6281590;28;20243;-57
2023/01/03 16:15:42;;;;;;;10.77;8.97;;;6.10;1.00;;;;;;6278992;28;20599;-57
2023/01/03 16:18:47;;;;;;;9.50;8.60;;;6.10;1.00;;;;;;6288105;28;20283;-57
2023/01/03 16:21:52;;;;;;;8.53;7.83;;;6.00;1.00;;;;;;6281643;28;20241;-57
2023/01/03 16:25:16;;;;;;;9.57;8.70;;;6.10;1.00;;;;;;6298269;28;20241;-57
2023/01/03 16:28:21;;;;;;;12.10;10.43;;;6.00;1.00;;;;;;6267243;28;20238;-57
2023/01/03 16:31:30;;;;;;;10.07;9.23;;;6.10;1.00;;;;;;6279162;28;20991;-58
2023/01/03 16:34:34;;;;;;;9.57;8.60;;;5.70;1.00;;;;;;6275200;28;20788;-58
2023/01/03 16:37:37;;;;;;;9.20;8.37;;;5.80;1.00;;;;;;6276700;28;20602;-58
2023/01/03 16:40:40;;;;;;;9.20;8.47;;;5.90;1.00;;;;;;6274074;28;20800;-56
2023/01/03 16:43:43;;;;;;;8.27;7.60;;;5.70;1.00;;;;;;6264484;28;20229;-56
2023/01/03 16:46:48;;;;;;;9.37;8.57;;;5.60;1.00;;;;;;6282503;28;20272;-57
2023/01/03 16:49:55;;;;;;;9.50;8.60;;;5.70;1.00;;;;;;6283911;28;20268;-57
2023/01/03 16:52:58;;;;;;;9.73;8.87;;;5.70;1.00;;;;;;6281653;28;20260;-56
2023/01/03 16:56:01;;;;;;;9.90;8.90;;;5.70;1.00;;;;;;6286309;28;20353;-56
2023/01/03 16:59:09;;;;;;;9.33;8.43;;;5.60;1.00;;;;;;6280322;28;20315;-56
2023/01/03 17:02:14;;;;;;;11.83;10.67;;;5.60;1.00;;;;;;6281244;28;20313;-57
2023/01/03 17:05:18;;;;;;;11.03;10.13;;;5.70;1.00;;;;;;6271220;28;20591;-57
2023/01/03 17:08:24;;;;;;;11.97;9.93;;;5.40;1.00;;;;;;6289847;28;20232;-56
2023/01/03 17:11:27;;;;;;;13.57;11.07;;;5.50;1.00;;;;;;6279443;28;20324;-57
2023/01/03 17:14:34;;;;;;;15.47;12.80;;;5.40;1.00;;;;;;6285570;28;20236;-57
2023/01/03 17:17:39;;;;;;;14.03;11.67;;;5.10;1.00;;;;;;6290535;28;20237;-56
2023/01/03 17:20:42;;;;;;;13.10;11.73;;;5.20;1.00;;;;;;6289238;28;20229;-58
2023/01/03 17:23:46;;;;;;;13.90;12.33;;;5.40;1.00;;;;;;6286124;28;20257;-56
2023/01/03 17:26:50;;;;;;;13.63;11.60;;;5.00;1.00;;;;;;6284974;28;20239;-57
2023/01/03 17:29:59;;;;;;;15.00;11.80;;;5.20;1.00;;;;;;6278774;28;20257;-57
2023/01/03 17:33:03;;;;;;;13.70;12.03;;;5.10;1.00;;;;;;6277154;28;20237;-56
2023/01/03 17:36:11;;;;;;;15.13;13.53;;;5.20;1.00;;;;;;6285061;28;20241;-56
2023/01/03 17:39:14;;;;;;;14.80;13.30;;;5.20;1.00;;;;;;6279828;28;20244;-57